East Hampton, NY (11937)

2:29 PM EDT on August 27, 2016 (GMT -0400)
Three Mile Harbor | | Change Station

Elev 16 ft 41.02 °N, 72.18 °W | Updated 5 minutes ago

Clear
Clear
83.1 °F
Feels Like 84 °F
N
6.0
Wind Variable Wind from ENE
Gusts 7.0 mph

Today
High -- | Low -- °F
--% Chance of Precip.
Yesterday
High -- | Low -- °F
Precip. -- in
Pressure 30.18 in
Visibility 10.0 miles
Clouds Clear
Heat Index 84 °F
Dew Point 62 °F
Humidity 49%
Rainfall 0.00 in
Snow Depth Not available.
6:10 AM 7:28 PM
Waning Crescent, 22% visible
METAR KHTO 271815Z AUTO 11008KT 10SM CLR 28/13 A3018 RMK AO2 T02790131
Pressure 30.18 in
Visibility 10.0 miles
Clouds Clear
Heat Index 84 °F
Dew Point 62 °F
Humidity 49%
Rainfall 0.00 in
Snow Depth Not available.
6:10 AM 7:28 PM
Waning Crescent, 22% visible
METAR KHTO 271815Z AUTO 11008KT 10SM CLR 28/13 A3018 RMK AO2 T02790131

10-Day Weather Forecast

Almanac

Astronomy

Aug. 27, 2016 Rise Set
Actual Time
Civil Twilight
Nautical Twilight
Astronomical Twilight
Moon
Length of Visible Light
Length of Day
Tomorrow will be .
, % of the Moon is Illuminated

Today's Extremes

State Highs State Lows

Community

WunderPhotos

Upload Photos

1,935,396 photos uploaded!

WunderBlog® & News

Nearby

Air Quality

  Air Quality AQ Index Pollutant
Not available.

Snow Depth

Station Depth Elevation

Earthquake Activity

City Distance Mag. Time & Date
Minimum magnitude displayed is 2.5.

Coastal Water Temperatures

Place Temperature

Stations

Nearby Weather Stations

Station Location Temp. Windchill Dew Point Humidity Wind Precip. Elev Updated Type
                   

Watches & Warnings

There are currently no watches in effect.